CYUX

Details ICAO CYUX (YUX)
Name Hall Beach
Region Canada
Timezone America/Iqaluit (UTC-5.0)
Plans Departing 5
Arriving 8
Stats Elevation 27 ft / 8 m (AMSL)
Location 68.775731° -81.242836°
Runways 1
Magnetic Variation 27.381° W
Sunrise Unknown / Unknown
Sunset Unknown / Unknown
Advertisement - Login to hide

Runways

ID Width Length Bearing (true) Bearing (mag) Surface Threshold Offset Overrun Length
12T 151 ft / 46 m 5,389 ft / 1,642 m 124.28° 151.66° Gravel 0 ft / 0 m 0 ft / 0 m
30T 151 ft / 46 m 5,389 ft / 1,642 m 304.32° 331.70° Gravel 0 ft / 0 m 0 ft / 0 m

Map

Weather


0- 5 10 15 20 25 30 35+ Temperature / ° C

Clouds and Precipitation
Forecast for 2017-12-11 12:00 UTC. Updated 14 minutes ago

Ground ~20,000 ft ~40,000 ft Winds

METAR

CYUX 110900Z AUTO 31016KT 9SM OVC085 M23/M26 A2961 RMK SLP028

TAF

TAF CYUX 110638Z 1107/1119 32015KT P6SM BKN080 TEMPO 1107/1119 5SM -SN BKN020 OVC070 RMK FCST BASED ON AUTO OBS. NXT FCST BY 111300Z

Frequencies

Recorded 128.69 MHz AWOS
Unicom 126.70 MHz MULTICOM
Unicom 122.20 MHz MULTICOM
Unicom 126.90 MHz MULTICOM
Warning: Do not use this data for real-world aviation or navigation. No guarantee of current accuracy is given.